Atsuta Maru No.8 — JG5494 — position and weather

sailwx.info

Track history (hours):
 
Tides and Currents Weather Stations Pressure Air Temp Water Temp Dewpoint Dewpoint Depression Visibility Wind Speed Wind Dir Waves Ship Positions

Atsuta Maru No.8

Last reported at 2017-Oct-09 10:18 UTC. Time now 2017-Oct-18 20:29 UTC.
Position N 35°02' E 139°32'.
Warning: this ship's position is 9 days out of date.

Length 69 m; draft 4 m.

Type: Tanker. MMSI: 431100297.

Date/timePositionNaut miles runAvg speedWind from/ knotsBaromVisibWave heightAir tempDewpointWater temp
2017-Oct-09 10:18N 35°02' E 139°32'311.8
2017-Oct-09 10:00N 35°04' E 139°35'611.9
2017-Oct-09 09:31N 35°07' E 139°41'611.8
2017-Oct-09 09:00N 35°12' E 139°46'611.7
2017-Oct-09 08:30N 35°17' E 139°45'611.9
2017-Oct-09 08:00N 35°23' E 139°42'611.6
2017-Oct-09 07:29N 35°27' E 139°48'2 0.3
2017-Oct-08 23:21N 35°25' E 139°48'410.8
2017-Oct-08 23:00N 35°22' E 139°45'510.1
2017-Oct-08 22:30N 35°17' E 139°46'510.9
2017-Oct-08 22:00N 35°11' E 139°47'611.7
2017-Oct-08 21:30N 35°06' E 139°45'611.9
2017-Oct-08 21:00N 35°01' E 139°41'611.8
2017-Oct-08 20:27N 34°57' E 139°34'  
Track history (hours):
 
Tides and Currents Weather Stations Pressure Air Temp Water Temp Dewpoint Dewpoint Depression Visibility Wind Speed Wind Dir Waves Ship Positions

Atsuta Maru No.8

Last reported at 2017-Oct-09 10:18 UTC. Time now 2017-Oct-18 20:29 UTC.
Position N 35°02' E 139°32'.
Warning: this ship's position is 9 days out of date.

Length 69 m; draft 4 m.

Type: Tanker. MMSI: 431100297.

Date/timePositionNaut miles runAvg speedWind from/ knotsBaromVisibWave heightAir tempDewpointWater temp
2017-Oct-09 10:18N 35°02' E 139°32'311.8
2017-Oct-09 10:00N 35°04' E 139°35'611.9
2017-Oct-09 09:31N 35°07' E 139°41'611.8
2017-Oct-09 09:00N 35°12' E 139°46'611.7
2017-Oct-09 08:30N 35°17' E 139°45'611.9
2017-Oct-09 08:00N 35°23' E 139°42'611.6
2017-Oct-09 07:29N 35°27' E 139°48'2 0.3
2017-Oct-08 23:21N 35°25' E 139°48'410.8
2017-Oct-08 23:00N 35°22' E 139°45'510.1
2017-Oct-08 22:30N 35°17' E 139°46'510.9
2017-Oct-08 22:00N 35°11' E 139°47'611.7
2017-Oct-08 21:30N 35°06' E 139°45'611.9
2017-Oct-08 21:00N 35°01' E 139°41'611.8
2017-Oct-08 20:27N 34°57' E 139°34'  

Dump ship's entire track history